TimeCDT,TemperatureF,Dew PointF,Humidity,Sea Level PressureIn,VisibilityMPH,Wind Direction,Wind SpeedMPH,Gust SpeedMPH,PrecipitationIn,Events,Conditions,WindDirDegrees,DateUTC
12:55 AM,71.6,69.8,94,30.15,10.0,Calm,Calm,-,N/A,,Scattered Clouds,0,2013-08-27 05:55:00
1:55 AM,71.6,68.0,88,30.14,10.0,Calm,Calm,-,N/A,,Clear,0,2013-08-27 06:55:00
2:55 AM,69.8,68.0,94,30.14,10.0,Calm,Calm,-,N/A,,Clear,0,2013-08-27 07:55:00
3:15 AM,69.8,66.2,88,30.14,10.0,Calm,Calm,-,N/A,,Clear,0,2013-08-27 08:15:00
3:35 AM,69.8,66.2,88,30.14,10.0,Calm,Calm,-,N/A,,Clear,0,2013-08-27 08:35:00
3:55 AM,69.8,66.2,88,30.14,10.0,Calm,Calm,-,N/A,,Clear,0,2013-08-27 08:55:00
4:15 AM,68.0,66.2,94,30.14,10.0,Calm,Calm,-,N/A,,Clear,0,2013-08-27 09:15:00
4:35 AM,68.0,66.2,94,30.14,10.0,Calm,Calm,-,N/A,,Clear,0,2013-08-27 09:35:00
4:55 AM,66.2,66.2,100,30.14,10.0,ESE,3.5,-,N/A,,Clear,110,2013-08-27 09:55:00
5:15 AM,66.2,66.2,100,30.14,9.0,Calm,Calm,-,N/A,,Clear,0,2013-08-27 10:15:00
5:35 AM,66.2,66.2,100,30.14,10.0,Calm,Calm,-,N/A,,Clear,0,2013-08-27 10:35:00
5:55 AM,66.2,66.2,100,30.14,10.0,Calm,Calm,-,N/A,,Clear,0,2013-08-27 10:55:00
6:55 AM,68.0,66.2,94,30.15,10.0,Calm,Calm,-,N/A,,Partly Cloudy,0,2013-08-27 11:55:00
7:55 AM,71.6,68.0,88,30.16,10.0,Calm,Calm,-,N/A,,Partly Cloudy,0,2013-08-27 12:55:00
8:55 AM,78.8,68.0,69,30.16,10.0,SW,4.6,-,N/A,,Partly Cloudy,220,2013-08-27 13:55:00
9:55 AM,82.4,66.2,58,30.16,10.0,SW,8.1,-,N/A,,Partly Cloudy,220,2013-08-27 14:55:00
10:55 AM,87.8,69.8,55,30.16,10.0,WSW,8.1,-,N/A,,Partly Cloudy,250,2013-08-27 15:55:00
11:55 AM,87.8,68.0,52,30.15,10.0,WSW,8.1,-,N/A,,Partly Cloudy,240,2013-08-27 16:55:00
12:55 PM,89.6,69.8,52,30.13,10.0,Variable,3.5,-,N/A,,Scattered Clouds,0,2013-08-27 17:55:00
1:55 PM,91.4,69.8,49,30.11,10.0,WSW,4.6,-,N/A,,Scattered Clouds,240,2013-08-27 18:55:00
2:55 PM,93.2,71.6,49,30.08,10.0,SW,5.8,-,N/A,,Scattered Clouds,230,2013-08-27 19:55:00
3:55 PM,91.4,69.8,49,30.07,10.0,Calm,Calm,-,N/A,,Scattered Clouds,0,2013-08-27 20:55:00
4:55 PM,93.2,69.8,46,30.06,10.0,Calm,Calm,-,N/A,,Scattered Clouds,0,2013-08-27 21:55:00
5:55 PM,91.4,69.8,49,30.06,10.0,NW,3.5,-,N/A,,Mostly Cloudy,320,2013-08-27 22:55:00
6:55 PM,84.2,73.4,70,30.06,10.0,Calm,Calm,-,N/A,,Mostly Cloudy,0,2013-08-27 23:55:00
7:55 PM,80.6,71.6,74,30.06,10.0,Calm,Calm,-,N/A,,Mostly Cloudy,0,2013-08-28 00:55:00
8:55 PM,77.0,71.6,83,30.07,10.0,East,4.6,-,N/A,,Mostly Cloudy,100,2013-08-28 01:55:00
9:55 PM,75.2,71.6,89,30.09,10.0,Calm,Calm,-,N/A,,Scattered Clouds,0,2013-08-28 02:55:00
10:55 PM,73.4,71.6,94,30.08,10.0,Calm,Calm,-,N/A,,Scattered Clouds,0,2013-08-28 03:55:00
11:55 PM,73.4,71.6,94,30.08,10.0,Calm,Calm,-,N/A,,Scattered Clouds,0,2013-08-28 04:55:00